CFVKO CZBA-CYXU
Flight info
| Callsign | CFVKO |
|---|---|
| Flight time | N/A |
| Altitude | 2000 |
| Route | CYXU CIRCUITS |
| Aircraft | C172/L-V/N |
Departure
| Time | N/A |
|---|---|
| Airport | Burlington Executive Airpark (CZBA) |
Arrival
| Time | 2026-04-22 01:40 |
|---|---|
| Airport | London International Airport (CYXU) |
| Time | Latitude | Longitude | Altitude | Speed | Heading |
|---|---|---|---|---|---|
| 2026-04-22 01:32 | 43.12127 | -81.06863 | 3056 ft | 75 kts | 235° |
| 2026-04-22 01:33 | 43.11730 | -81.07377 | 2758 ft | 80 kts | 224° |
| 2026-04-22 01:33 | 43.11218 | -81.07789 | 2668 ft | 89 kts | 215° |
| 2026-04-22 01:33 | 43.10665 | -81.08136 | 2522 ft | 86 kts | 213° |
| 2026-04-22 01:33 | 43.10115 | -81.08447 | 2435 ft | 85 kts | 212° |
| 2026-04-22 01:34 | 43.09596 | -81.08799 | 2345 ft | 82 kts | 214° |
| 2026-04-22 01:34 | 43.09084 | -81.09169 | 2375 ft | 85 kts | 214° |
| 2026-04-22 01:34 | 43.08554 | -81.09517 | 2465 ft | 86 kts | 212° |
| 2026-04-22 01:34 | 43.07942 | -81.09792 | 2350 ft | 99 kts | 206° |
| 2026-04-22 01:35 | 43.07243 | -81.10035 | 2224 ft | 105 kts | 201° |
| 2026-04-22 01:35 | 43.06557 | -81.10233 | 2244 ft | 101 kts | 199° |
| 2026-04-22 01:35 | 43.05834 | -81.10417 | 2110 ft | 109 kts | 198° |
| 2026-04-22 01:35 | 43.05059 | -81.10554 | 1930 ft | 115 kts | 189° |
| 2026-04-22 01:36 | 43.04272 | -81.10589 | 1982 ft | 104 kts | 191° |
| 2026-04-22 01:36 | 43.03573 | -81.10691 | 2000 ft | 97 kts | 197° |
| 2026-04-22 01:36 | 43.02956 | -81.11051 | 1989 ft | 97 kts | 212° |
| 2026-04-22 01:36 | 43.02512 | -81.11671 | 2016 ft | 96 kts | 244° |
| 2026-04-22 01:37 | 43.02560 | -81.12572 | 1996 ft | 103 kts | 287° |
| 2026-04-22 01:37 | 43.03153 | -81.13200 | 1881 ft | 105 kts | 319° |
| 2026-04-22 01:37 | 43.03808 | -81.13711 | 1929 ft | 111 kts | 320° |
| 2026-04-22 01:37 | 43.04511 | -81.14205 | 1837 ft | 111 kts | 322° |
| 2026-04-22 01:38 | 43.05134 | -81.14723 | 1839 ft | 100 kts | 316° |
| 2026-04-22 01:38 | 43.05709 | -81.15256 | 1805 ft | 102 kts | 313° |
| 2026-04-22 01:38 | 43.06085 | -81.16012 | 1660 ft | 87 kts | 279° |
| 2026-04-22 01:38 | 43.05981 | -81.16781 | 1344 ft | 87 kts | 238° |
| 2026-04-22 01:39 | 43.05584 | -81.17354 | 1219 ft | 76 kts | 201° |
| 2026-04-22 01:39 | 43.05092 | -81.17149 | 1267 ft | 82 kts | 134° |
| 2026-04-22 01:39 | 43.04733 | -81.16612 | 1166 ft | 75 kts | 134° |
| 2026-04-22 01:39 | 43.04339 | -81.16137 | 1032 ft | 71 kts | 137° |
| 2026-04-22 01:40 | 43.04019 | -81.15752 | 908 ft | 51 kts | 136° |
| 2026-04-22 01:40 | 43.03812 | -81.15500 | 903 ft | 40 kts | 136° |
| 2026-04-22 01:40 | 43.03497 | -81.15121 | 1004 ft | 72 kts | 139° |
| 2026-04-22 01:40 | 43.03079 | -81.14645 | 1226 ft | 86 kts | 139° |
| 2026-04-22 01:41 | 43.02601 | -81.14066 | 1459 ft | 97 kts | 135° |
| 2026-04-22 01:41 | 43.02440 | -81.13151 | 1782 ft | 107 kts | 85° |
| 2026-04-22 01:41 | 43.02831 | -81.12202 | 1995 ft | 122 kts | 42° |
| 2026-04-22 01:41 | 43.03485 | -81.11438 | 1973 ft | 117 kts | 34° |
| 2026-04-22 01:42 | 43.04143 | -81.11149 | 1836 ft | 94 kts | 337° |
| 2026-04-22 01:42 | 43.04682 | -81.11601 | 1819 ft | 93 kts | 311° |
| 2026-04-22 01:42 | 43.05184 | -81.12162 | 1934 ft | 87 kts | 308° |
| 2026-04-22 01:42 | 43.05581 | -81.12655 | 1886 ft | 76 kts | 302° |
| 2026-04-22 01:43 | 43.05960 | -81.13162 | 1935 ft | 70 kts | 298° |
| 2026-04-22 01:43 | 43.06291 | -81.13668 | 1953 ft | 77 kts | 293° |
| 2026-04-22 01:43 | 43.06628 | -81.14262 | 1955 ft | 80 kts | 291° |
| 2026-04-22 01:43 | 43.06764 | -81.14870 | 1958 ft | 62 kts | 246° |
| 2026-04-22 01:44 | 43.06456 | -81.15256 | 1736 ft | 68 kts | 213° |
| 2026-04-22 01:44 | 43.06106 | -81.15674 | 1605 ft | 64 kts | 221° |
| 2026-04-22 01:44 | 43.05784 | -81.16100 | 1491 ft | 68 kts | 221° |
| 2026-04-22 01:44 | 43.05407 | -81.16562 | 1478 ft | 77 kts | 212° |
| 2026-04-22 01:45 | 43.04890 | -81.16611 | 1303 ft | 82 kts | 156° |
| 2026-04-22 01:45 | 43.04432 | -81.16240 | 1064 ft | 72 kts | 138° |
| 2026-04-22 01:45 | 43.04090 | -81.15837 | 918 ft | 57 kts | 136° |
| 2026-04-22 01:45 | 43.03851 | -81.15553 | 902 ft | 36 kts | 137° |
| 2026-04-22 01:46 | 43.03698 | -81.15362 | 903 ft | 29 kts | 139° |
| 2026-04-22 01:46 | 43.03570 | -81.15301 | 905 ft | 13 kts | 213° |
| 2026-04-22 01:46 | 43.03529 | -81.15358 | 904 ft | 0 kts | 228° |
| 2026-04-22 01:49 | 43.03525 | -81.15363 | 904 ft | 5 kts | 222° |
| 2026-04-22 01:49 | 43.03497 | -81.15426 | 904 ft | 8 kts | 279° |
| 2026-04-22 01:49 | 43.03532 | -81.15485 | 904 ft | 10 kts | 317° |
| 2026-04-22 01:49 | 43.03599 | -81.15565 | 903 ft | 16 kts | 319° |
| 2026-04-22 01:50 | 43.03697 | -81.15683 | 903 ft | 22 kts | 318° |
| 2026-04-22 01:50 | 43.03830 | -81.15843 | 902 ft | 29 kts | 319° |
| 2026-04-22 01:50 | 43.03956 | -81.15992 | 903 ft | 2 kts | 323° |
| 2026-04-22 01:50 | 43.04033 | -81.16012 | 904 ft | 15 kts | 0° |
| 2026-04-22 01:51 | 43.04044 | -81.16012 | 904 ft | 0 kts | 7° |
| 2026-04-22 01:52 | 43.04072 | -81.16006 | 904 ft | 12 kts | 14° |
| 2026-04-22 01:53 | 43.04135 | -81.15889 | 905 ft | 14 kts | 124° |
| 2026-04-22 01:53 | 43.03987 | -81.15705 | 904 ft | 54 kts | 136° |
| 2026-04-22 01:53 | 43.03623 | -81.15288 | 1055 ft | 75 kts | 139° |
| 2026-04-22 01:53 | 43.03220 | -81.14846 | 1386 ft | 75 kts | 141° |
| 2026-04-22 01:54 | 43.02865 | -81.14285 | 1684 ft | 86 kts | 122° |
| 2026-04-22 01:54 | 43.02773 | -81.13407 | 1943 ft | 104 kts | 95° |
| 2026-04-22 01:54 | 43.02925 | -81.12379 | 2196 ft | 115 kts | 76° |